sensor_id;sensor_type;location;lat;lon;timestamp;temperature;humidity
7572;DHT22;3827;49.928;8.548;2022-12-18T00:02:03;-8.10;99.90
7572;DHT22;3827;49.928;8.548;2022-12-18T00:06:57;-8.40;99.90
7572;DHT22;3827;49.928;8.548;2022-12-18T00:11:51;-8.40;99.90
7572;DHT22;3827;49.928;8.548;2022-12-18T00:14:18;-8.50;99.90
7572;DHT22;3827;49.928;8.548;2022-12-18T00:16:45;-8.00;99.90
7572;DHT22;3827;49.928;8.548;2022-12-18T00:21:42;-8.40;99.90
7572;DHT22;3827;49.928;8.548;2022-12-18T00:24:10;-8.60;99.90
7572;DHT22;3827;49.928;8.548;2022-12-18T00:26:38;-8.70;99.90
7572;DHT22;3827;49.928;8.548;2022-12-18T00:29:06;-7.00;99.90
7572;DHT22;3827;49.928;8.548;2022-12-18T00:31:33;-8.60;99.90
7572;DHT22;3827;49.928;8.548;2022-12-18T00:34:00;-8.60;99.90
7572;DHT22;3827;49.928;8.548;2022-12-18T00:54:01;-8.80;99.90
7572;DHT22;3827;49.928;8.548;2022-12-18T00:58:55;-8.70;99.90
7572;DHT22;3827;49.928;8.548;2022-12-18T01:03:49;-8.60;99.90
7572;DHT22;3827;49.928;8.548;2022-12-18T01:08:44;-8.40;99.90
7572;DHT22;3827;49.928;8.548;2022-12-18T01:11:13;-8.60;99.90
7572;DHT22;3827;49.928;8.548;2022-12-18T01:18:35;-8.70;99.90
7572;DHT22;3827;49.928;8.548;2022-12-18T01:21:06;-8.60;99.90
7572;DHT22;3827;49.928;8.548;2022-12-18T01:31:10;-8.80;99.90
7572;DHT22;3827;49.928;8.548;2022-12-18T01:38:31;-8.90;99.90
7572;DHT22;3827;49.928;8.548;2022-12-18T01:48:53;-9.40;99.90
7572;DHT22;3827;49.928;8.548;2022-12-18T01:53:48;-7.10;99.90
7572;DHT22;3827;49.928;8.548;2022-12-18T01:56:17;-9.10;99.90
7572;DHT22;3827;49.928;8.548;2022-12-18T01:58:51;-9.40;99.90
7572;DHT22;3827;49.928;8.548;2022-12-18T02:03:49;-9.10;99.90
7572;DHT22;3827;49.928;8.548;2022-12-18T02:06:18;-9.60;99.90
7572;DHT22;3827;49.928;8.548;2022-12-18T02:13:53;-9.60;99.90
7572;DHT22;3827;49.928;8.548;2022-12-18T02:16:30;-9.20;99.90
7572;DHT22;3827;49.928;8.548;2022-12-18T02:21:33;-9.30;99.90
7572;DHT22;3827;49.928;8.548;2022-12-18T02:24:13;-9.40;99.90
7572;DHT22;3827;49.928;8.548;2022-12-18T02:26:48;-9.40;99.90
7572;DHT22;3827;49.928;8.548;2022-12-18T02:29:20;-9.40;99.90
7572;DHT22;3827;49.928;8.548;2022-12-18T02:36:45;-9.30;99.90
7572;DHT22;3827;49.928;8.548;2022-12-18T02:39:14;-9.20;99.90
7572;DHT22;3827;49.928;8.548;2022-12-18T02:56:51;-9.40;99.90
7572;DHT22;3827;49.928;8.548;2022-12-18T02:59:23;-9.50;99.90
7572;DHT22;3827;49.928;8.548;2022-12-18T03:01:57;-9.50;99.90
7572;DHT22;3827;49.928;8.548;2022-12-18T03:04:27;-9.70;99.90
7572;DHT22;3827;49.928;8.548;2022-12-18T03:06:57;-9.60;99.90
7572;DHT22;3827;49.928;8.548;2022-12-18T03:09:29;-9.70;99.90
7572;DHT22;3827;49.928;8.548;2022-12-18T03:14:49;-9.20;99.90
7572;DHT22;3827;49.928;8.548;2022-12-18T03:17:19;-9.60;99.90
7572;DHT22;3827;49.928;8.548;2022-12-18T03:24:45;-9.50;99.90
7572;DHT22;3827;49.928;8.548;2022-12-18T03:27:15;-9.50;99.90
7572;DHT22;3827;49.928;8.548;2022-12-18T03:29:47;-9.30;99.90
7572;DHT22;3827;49.928;8.548;2022-12-18T03:32:19;-9.60;99.90
7572;DHT22;3827;49.928;8.548;2022-12-18T03:34:49;-9.30;99.90
7572;DHT22;3827;49.928;8.548;2022-12-18T03:37:17;-9.90;99.90
7572;DHT22;3827;49.928;8.548;2022-12-18T03:39:44;-9.80;99.90
7572;DHT22;3827;49.928;8.548;2022-12-18T03:42:16;-9.50;99.90
7572;DHT22;3827;49.928;8.548;2022-12-18T03:47:26;-9.90;99.90
7572;DHT22;3827;49.928;8.548;2022-12-18T03:49:59;-9.90;99.90
7572;DHT22;3827;49.928;8.548;2022-12-18T03:57:27;-9.70;99.90
7572;DHT22;3827;49.928;8.548;2022-12-18T04:04:53;-9.50;99.90
7572;DHT22;3827;49.928;8.548;2022-12-18T04:09:53;-9.30;99.90
7572;DHT22;3827;49.928;8.548;2022-12-18T04:19:46;-9.70;99.90
7572;DHT22;3827;49.928;8.548;2022-12-18T04:24:40;-9.30;99.90
7572;DHT22;3827;49.928;8.548;2022-12-18T04:46:45;-9.20;99.90
7572;DHT22;3827;49.928;8.548;2022-12-18T04:51:41;-9.10;99.90
7572;DHT22;3827;49.928;8.548;2022-12-18T04:54:08;-9.40;99.90
7572;DHT22;3827;49.928;8.548;2022-12-18T05:08:55;-9.00;99.90
7572;DHT22;3827;49.928;8.548;2022-12-18T05:11:22;-9.60;99.90
7572;DHT22;3827;49.928;8.548;2022-12-18T05:16:16;-9.10;99.90
7572;DHT22;3827;49.928;8.548;2022-12-18T05:21:10;-9.40;99.90
7572;DHT22;3827;49.928;8.548;2022-12-18T05:26:06;-8.60;99.90
7572;DHT22;3827;49.928;8.548;2022-12-18T05:28:34;-8.90;99.90
7572;DHT22;3827;49.928;8.548;2022-12-18T05:31:03;-9.10;99.90
7572;DHT22;3827;49.928;8.548;2022-12-18T05:33:32;-9.10;99.90
7572;DHT22;3827;49.928;8.548;2022-12-18T05:43:26;-8.90;99.90
7572;DHT22;3827;49.928;8.548;2022-12-18T05:50:50;-9.00;99.90
7572;DHT22;3827;49.928;8.548;2022-12-18T05:53:18;-9.40;99.90
7572;DHT22;3827;49.928;8.548;2022-12-18T05:55:46;-8.90;99.90
7572;DHT22;3827;49.928;8.548;2022-12-18T06:05:39;-9.00;99.90
7572;DHT22;3827;49.928;8.548;2022-12-18T06:22:50;-9.50;99.90
7572;DHT22;3827;49.928;8.548;2022-12-18T06:30:14;-9.60;99.90
7572;DHT22;3827;49.928;8.548;2022-12-18T06:37:36;-9.40;99.90
7572;DHT22;3827;49.928;8.548;2022-12-18T06:42:31;-9.10;99.90
7572;DHT22;3827;49.928;8.548;2022-12-18T06:54:47;-9.50;99.90
7572;DHT22;3827;49.928;8.548;2022-12-18T07:02:11;-9.00;99.90
7572;DHT22;3827;49.928;8.548;2022-12-18T08:06:09;-9.80;99.90
7572;DHT22;3827;49.928;8.548;2022-12-18T08:11:03;-9.40;99.90
7572;DHT22;3827;49.928;8.548;2022-12-18T08:18:27;-9.20;99.90
7572;DHT22;3827;49.928;8.548;2022-12-18T08:20:54;-9.50;99.90
7572;DHT22;3827;49.928;8.548;2022-12-18T08:25:48;-9.80;99.90
7572;DHT22;3827;49.928;8.548;2022-12-18T08:28:15;-9.70;99.90
7572;DHT22;3827;49.928;8.548;2022-12-18T08:33:12;-9.50;99.90
7572;DHT22;3827;49.928;8.548;2022-12-18T08:35:40;-9.50;99.90
7572;DHT22;3827;49.928;8.548;2022-12-18T08:53:08;-9.20;99.90
7572;DHT22;3827;49.928;8.548;2022-12-18T08:55:35;-9.40;99.90
7572;DHT22;3827;49.928;8.548;2022-12-18T09:00:28;-9.20;99.90
7572;DHT22;3827;49.928;8.548;2022-12-18T09:05:24;-8.90;99.90
7572;DHT22;3827;49.928;8.548;2022-12-18T09:12:47;-8.70;99.90
7572;DHT22;3827;49.928;8.548;2022-12-18T09:17:41;-8.80;99.90
7572;DHT22;3827;49.928;8.548;2022-12-18T09:32:27;-8.50;99.90
7572;DHT22;3827;49.928;8.548;2022-12-18T09:37:21;-8.30;99.90
7572;DHT22;3827;49.928;8.548;2022-12-18T09:47:19;-7.60;99.90
7572;DHT22;3827;49.928;8.548;2022-12-18T09:54:51;-7.10;99.90
7572;DHT22;3827;49.928;8.548;2022-12-18T09:57:23;-7.20;99.90
7572;DHT22;3827;49.928;8.548;2022-12-18T10:10:00;-6.40;99.90
7572;DHT22;3827;49.928;8.548;2022-12-18T10:20:12;-6.00;99.90
7572;DHT22;3827;49.928;8.548;2022-12-18T10:25:19;-5.00;99.90
7572;DHT22;3827;49.928;8.548;2022-12-18T10:27:52;-5.00;99.90
7572;DHT22;3827;49.928;8.548;2022-12-18T10:30:22;-4.90;99.90
7572;DHT22;3827;49.928;8.548;2022-12-18T10:40:48;-4.30;99.90
7572;DHT22;3827;49.928;8.548;2022-12-18T10:46:03;-4.10;99.90
7572;DHT22;3827;49.928;8.548;2022-12-18T10:48:32;-3.90;99.90
7572;DHT22;3827;49.928;8.548;2022-12-18T10:55:58;-4.20;99.90
7572;DHT22;3827;49.928;8.548;2022-12-18T10:58:31;-4.00;99.90
7572;DHT22;3827;49.928;8.548;2022-12-18T11:01:09;-3.80;99.90
7572;DHT22;3827;49.928;8.548;2022-12-18T11:03:38;-4.10;99.90
7572;DHT22;3827;49.928;8.548;2022-12-18T11:08:35;-3.70;99.90
7572;DHT22;3827;49.928;8.548;2022-12-18T11:23:25;-3.40;99.90
7572;DHT22;3827;49.928;8.548;2022-12-18T11:25:57;-3.90;99.90
7572;DHT22;3827;49.928;8.548;2022-12-18T11:31:12;-3.70;99.90
7572;DHT22;3827;49.928;8.548;2022-12-18T11:33:42;-3.20;99.90
7572;DHT22;3827;49.928;8.548;2022-12-18T11:36:13;-3.60;99.90
7572;DHT22;3827;49.928;8.548;2022-12-18T11:41:18;-3.00;99.90
7572;DHT22;3827;49.928;8.548;2022-12-18T11:44:11;-3.10;99.90
7572;DHT22;3827;49.928;8.548;2022-12-18T11:46:46;-2.40;99.90
7572;DHT22;3827;49.928;8.548;2022-12-18T11:51:47;-2.10;99.90
7572;DHT22;3827;49.928;8.548;2022-12-18T11:59:23;-2.10;99.90
7572;DHT22;3827;49.928;8.548;2022-12-18T12:12:39;-2.20;99.90
7572;DHT22;3827;49.928;8.548;2022-12-18T12:20:22;-2.30;99.90
7572;DHT22;3827;49.928;8.548;2022-12-18T12:22:55;-2.40;99.90
7572;DHT22;3827;49.928;8.548;2022-12-18T12:25:33;-2.00;99.90
7572;DHT22;3827;49.928;8.548;2022-12-18T12:33:19;-2.50;99.90
7572;DHT22;3827;49.928;8.548;2022-12-18T12:35:55;-2.70;99.90
7572;DHT22;3827;49.928;8.548;2022-12-18T12:38:26;-2.40;99.90
7572;DHT22;3827;49.928;8.548;2022-12-18T12:40:57;-2.50;99.90
7572;DHT22;3827;49.928;8.548;2022-12-18T12:51:11;-2.60;99.90
7572;DHT22;3827;49.928;8.548;2022-12-18T12:53:39;-2.50;99.90
7572;DHT22;3827;49.928;8.548;2022-12-18T12:58:42;-2.80;99.90
7572;DHT22;3827;49.928;8.548;2022-12-18T13:11:31;-2.70;99.90
7572;DHT22;3827;49.928;8.548;2022-12-18T13:14:26;-2.50;99.90
7572;DHT22;3827;49.928;8.548;2022-12-18T13:22:04;-3.20;99.90
7572;DHT22;3827;49.928;8.548;2022-12-18T13:40:53;-2.70;99.90
7572;DHT22;3827;49.928;8.548;2022-12-18T13:51:21;-2.70;99.90
7572;DHT22;3827;49.928;8.548;2022-12-18T13:58:45;-2.70;99.90
7572;DHT22;3827;49.928;8.548;2022-12-18T14:06:21;-3.30;99.90
7572;DHT22;3827;49.928;8.548;2022-12-18T14:11:20;-2.60;99.90
7572;DHT22;3827;49.928;8.548;2022-12-18T14:18:47;-3.30;99.90
7572;DHT22;3827;49.928;8.548;2022-12-18T14:28:48;-3.10;99.90
7572;DHT22;3827;49.928;8.548;2022-12-18T14:33:46;-3.50;99.90
7572;DHT22;3827;49.928;8.548;2022-12-18T14:36:17;-3.00;99.90
7572;DHT22;3827;49.928;8.548;2022-12-18T14:38:50;-3.40;99.90
7572;DHT22;3827;49.928;8.548;2022-12-18T14:41:20;-3.40;99.90
7572;DHT22;3827;49.928;8.548;2022-12-18T14:43:49;-3.00;99.90
7572;DHT22;3827;49.928;8.548;2022-12-18T14:51:29;-3.40;99.90
7572;DHT22;3827;49.928;8.548;2022-12-18T14:53:59;-3.40;99.90
7572;DHT22;3827;49.928;8.548;2022-12-18T15:01:28;-3.70;99.90
7572;DHT22;3827;49.928;8.548;2022-12-18T15:08:53;-3.80;99.90
7572;DHT22;3827;49.928;8.548;2022-12-18T15:14:40;-3.80;99.90
7572;DHT22;3827;49.928;8.548;2022-12-18T15:17:16;-3.70;99.90
7572;DHT22;3827;49.928;8.548;2022-12-18T15:19:46;-3.60;99.90
7572;DHT22;3827;49.928;8.548;2022-12-18T15:22:24;-3.90;99.90
7572;DHT22;3827;49.928;8.548;2022-12-18T15:27:30;-4.00;99.90
7572;DHT22;3827;49.928;8.548;2022-12-18T15:32:46;-4.10;99.90
7572;DHT22;3827;49.928;8.548;2022-12-18T15:35:18;-4.00;99.90
7572;DHT22;3827;49.928;8.548;2022-12-18T15:37:46;-4.10;99.90
7572;DHT22;3827;49.928;8.548;2022-12-18T15:40:15;-4.00;99.90
7572;DHT22;3827;49.928;8.548;2022-12-18T15:42:42;-3.90;99.90
7572;DHT22;3827;49.928;8.548;2022-12-18T15:50:23;-4.00;99.90
7572;DHT22;3827;49.928;8.548;2022-12-18T15:52:53;-3.90;99.90
7572;DHT22;3827;49.928;8.548;2022-12-18T16:03:04;-3.90;99.90
7572;DHT22;3827;49.928;8.548;2022-12-18T16:07:59;-4.20;99.90
7572;DHT22;3827;49.928;8.548;2022-12-18T16:15:21;-4.00;99.90
7572;DHT22;3827;49.928;8.548;2022-12-18T16:20:18;-4.00;99.90
7572;DHT22;3827;49.928;8.548;2022-12-18T16:32:43;-4.20;99.90
7572;DHT22;3827;49.928;8.548;2022-12-18T16:35:11;-4.00;99.90
7572;DHT22;3827;49.928;8.548;2022-12-18T16:47:32;-4.00;99.90
7572;DHT22;3827;49.928;8.548;2022-12-18T16:52:26;-4.10;99.90
7572;DHT22;3827;49.928;8.548;2022-12-18T16:54:56;-4.10;99.90
7572;DHT22;3827;49.928;8.548;2022-12-18T16:59:51;-4.10;99.90
7572;DHT22;3827;49.928;8.548;2022-12-18T17:02:20;-4.10;99.90
7572;DHT22;3827;49.928;8.548;2022-12-18T17:07:15;-4.00;99.90
7572;DHT22;3827;49.928;8.548;2022-12-18T17:09:42;-4.00;99.90
7572;DHT22;3827;49.928;8.548;2022-12-18T17:12:11;-4.00;99.90
7572;DHT22;3827;49.928;8.548;2022-12-18T17:17:05;-3.80;99.90
7572;DHT22;3827;49.928;8.548;2022-12-18T17:19:32;-3.90;99.90
7572;DHT22;3827;49.928;8.548;2022-12-18T17:24:27;-3.90;99.90
7572;DHT22;3827;49.928;8.548;2022-12-18T17:29:23;-3.90;99.90
7572;DHT22;3827;49.928;8.548;2022-12-18T17:34:17;-4.00;99.90
7572;DHT22;3827;49.928;8.548;2022-12-18T17:54:04;-3.90;99.90
7572;DHT22;3827;49.928;8.548;2022-12-18T18:08:52;-3.70;99.90
7572;DHT22;3827;49.928;8.548;2022-12-18T18:21:40;-3.60;99.90
7572;DHT22;3827;49.928;8.548;2022-12-18T18:26:35;-3.50;99.90
7572;DHT22;3827;49.928;8.548;2022-12-18T18:38:57;-3.80;99.90
7572;DHT22;3827;49.928;8.548;2022-12-18T18:43:57;-3.80;99.90
7572;DHT22;3827;49.928;8.548;2022-12-18T18:48:52;-3.90;99.90
7572;DHT22;3827;49.928;8.548;2022-12-18T18:53:50;-3.80;99.90
7572;DHT22;3827;49.928;8.548;2022-12-18T18:56:22;-4.00;99.90
7572;DHT22;3827;49.928;8.548;2022-12-18T19:01:18;-3.90;99.90
7572;DHT22;3827;49.928;8.548;2022-12-18T19:06:16;-3.50;99.90
7572;DHT22;3827;49.928;8.548;2022-12-18T19:08:44;-3.80;99.90
7572;DHT22;3827;49.928;8.548;2022-12-18T19:13:58;-3.70;99.90
7572;DHT22;3827;49.928;8.548;2022-12-18T19:16:27;-3.60;99.90
7572;DHT22;3827;49.928;8.548;2022-12-18T19:18:55;-2.40;99.90
7572;DHT22;3827;49.928;8.548;2022-12-18T19:26:18;-3.20;99.90
7572;DHT22;3827;49.928;8.548;2022-12-18T19:36:14;-3.30;99.90
7572;DHT22;3827;49.928;8.548;2022-12-18T19:38:42;-3.60;99.90
7572;DHT22;3827;49.928;8.548;2022-12-18T19:51:04;-3.30;99.90
7572;DHT22;3827;49.928;8.548;2022-12-18T19:53:32;-3.50;99.90
7572;DHT22;3827;49.928;8.548;2022-12-18T19:56:04;-3.40;99.90
7572;DHT22;3827;49.928;8.548;2022-12-18T19:58:31;-2.90;99.90
7572;DHT22;3827;49.928;8.548;2022-12-18T20:00:59;-3.60;99.90
7572;DHT22;3827;49.928;8.548;2022-12-18T20:10:48;-3.50;99.90
7572;DHT22;3827;49.928;8.548;2022-12-18T20:13:15;-3.30;99.90
7572;DHT22;3827;49.928;8.548;2022-12-18T20:20:38;-3.20;99.90
7572;DHT22;3827;49.928;8.548;2022-12-18T20:35:22;-3.70;99.90
7572;DHT22;3827;49.928;8.548;2022-12-18T20:37:52;-3.70;99.90
7572;DHT22;3827;49.928;8.548;2022-12-18T20:52:41;-3.30;99.90
7572;DHT22;3827;49.928;8.548;2022-12-18T20:57:35;-3.10;99.90
7572;DHT22;3827;49.928;8.548;2022-12-18T21:00:04;-3.30;99.90
7572;DHT22;3827;49.928;8.548;2022-12-18T21:02:31;-2.90;99.90
7572;DHT22;3827;49.928;8.548;2022-12-18T21:04:58;-2.80;99.90
7572;DHT22;3827;49.928;8.548;2022-12-18T21:27:15;-2.90;99.90
7572;DHT22;3827;49.928;8.548;2022-12-18T21:32:10;-3.00;99.90
7572;DHT22;3827;49.928;8.548;2022-12-18T21:34:38;-3.30;99.90
7572;DHT22;3827;49.928;8.548;2022-12-18T21:39:33;-2.70;99.90
7572;DHT22;3827;49.928;8.548;2022-12-18T21:47:15;-2.60;99.90
7572;DHT22;3827;49.928;8.548;2022-12-18T21:49:42;-3.20;99.90
7572;DHT22;3827;49.928;8.548;2022-12-18T21:54:36;-3.00;99.90
7572;DHT22;3827;49.928;8.548;2022-12-18T21:57:05;-3.20;99.90
7572;DHT22;3827;49.928;8.548;2022-12-18T21:59:34;-3.40;99.90
7572;DHT22;3827;49.928;8.548;2022-12-18T22:04:31;-2.90;99.90
7572;DHT22;3827;49.928;8.548;2022-12-18T22:11:57;-3.50;99.90
7572;DHT22;3827;49.928;8.548;2022-12-18T22:16:51;-3.00;99.90
7572;DHT22;3827;49.928;8.548;2022-12-18T22:19:21;-3.20;99.90
7572;DHT22;3827;49.928;8.548;2022-12-18T22:21:49;-3.00;99.90
7572;DHT22;3827;49.928;8.548;2022-12-18T22:31:57;-3.30;99.90
7572;DHT22;3827;49.928;8.548;2022-12-18T22:34:26;-3.20;99.90
7572;DHT22;3827;49.928;8.548;2022-12-18T22:39:21;-2.70;99.90
7572;DHT22;3827;49.928;8.548;2022-12-18T22:46:45;-2.60;99.90
7572;DHT22;3827;49.928;8.548;2022-12-18T22:56:36;-2.60;99.90
7572;DHT22;3827;49.928;8.548;2022-12-18T22:59:03;-2.60;99.90
7572;DHT22;3827;49.928;8.548;2022-12-18T23:06:26;-2.40;99.90
7572;DHT22;3827;49.928;8.548;2022-12-18T23:08:55;-3.00;99.90
7572;DHT22;3827;49.928;8.548;2022-12-18T23:13:51;-2.30;99.90
7572;DHT22;3827;49.928;8.548;2022-12-18T23:18:46;-2.50;99.90
7572;DHT22;3827;49.928;8.548;2022-12-18T23:21:14;-2.20;99.90
7572;DHT22;3827;49.928;8.548;2022-12-18T23:26:12;-2.30;99.90
7572;DHT22;3827;49.928;8.548;2022-12-18T23:28:39;-2.80;99.90
7572;DHT22;3827;49.928;8.548;2022-12-18T23:38:30;-2.60;99.90
7572;DHT22;3827;49.928;8.548;2022-12-18T23:43:25;-2.70;99.90
7572;DHT22;3827;49.928;8.548;2022-12-18T23:48:20;-2.20;99.90
7572;DHT22;3827;49.928;8.548;2022-12-18T23:50:46;-2.30;99.90
7572;DHT22;3827;49.928;8.548;2022-12-18T23:55:42;-2.70;99.90
7572;DHT22;3827;49.928;8.548;2022-12-18T23:58:15;-2.40;99.90
